Weather observations for the past three days for
Santa Rosa, Santa Rosa Sonoma County Airport
Imperial (Metric)
Date Time (pdt) Wind (mph) Vis. (mi.) Weather Sky Cond. Temperature (ºF) Relative Humidity Wind Chill (°F) Heat Index (°F) Pressure Precipitation (in)
Air Dwpt 6 hour altimeter (in) sea level (mb) 1 hr 3 hr 6 hr
Max. Min.
31 09:53 SE 5 5.00 Overcast with Haze OVC009 57 52 83% 29.94 1013.1
31 08:53 SE 6 5.00 Overcast with Haze OVC008 55.9 51.1 84% 29.93 1012.9
31 07:53 Calm 4.00 Fog/Mist OVC008 55 52 90% 29.92 1012.5
31 06:53 Calm 8.00 Overcast OVC006 54 52 93% 29.9 1011.8
31 05:53 S 3 8.00 Overcast OVC005 54 52 93% 29.89 1011.6
31 04:53 Calm 8.00 Overcast OVC006 52 52 54 50 100% 29.89 1011.6
31 03:53 Calm 0.75 Fog/Mist VV006 51.1 51.1 100% 29.89 1011.3
31 02:53 Calm 6.00 Fog/Mist FEW006 OVC010 51.1 50 96% 29.88 1011.0
31 01:53 Calm 7.00 A Few Clouds FEW011 50 50 100% 29.88 1011.1
31 00:53 SE 3 8.00 Overcast BKN006 OVC010 53.1 51.1 93% 29.89 1011.4
30 23:53 SE 3 8.00 Mostly Cloudy BKN007 54 51.1 90% 29.88 1011.3
30 22:53 SE 5 9.00 Fair CLR 55 51.1 82 55 87% 29.88 1011.3
30 21:53 S 9 9.00 Fair CLR 55.9 52 87% 29.88 1011.3
30 20:53 S 8 10.00 Fair CLR 57.9 52 81% 29.86 1010.6
30 19:53 SE 8 10.00 Fair CLR 63 52 68% 29.85 1010.2
30 18:53 SE 10 10.00 Fair CLR 72 52 50% 29.85 1010.2
30 17:53 S 12 10.00 Fair CLR 78.1 51.1 39% 79 29.85 1010.2
30 16:53 S 13 10.00 Fair CLR 82 51.1 84 68 34% 81 29.85 1010.2
30 15:53 S 12 10.00 Fair CLR 82.9 52 34% 82 29.86 1010.5
30 14:53 SW 8 10.00 Fair CLR 82 53.1 37% 81 29.88 1011.1
30 13:53 S 6 10.00 Fair CLR 82 53.1 37% 81 29.9 1011.8
30 12:53 Vrbl 5 10.00 Fair CLR 77 51.1 40% 78 29.92 1012.5
30 11:53 S 5 10.00 Fair CLR 71.1 52 51% 29.94 1013.2
30 10:53 Vrbl 3 10.00 Fair CLR 68 51.1 69.1 46 55% 29.95 1013.4
30 09:53 Calm 10.00 Fair CLR 63 51.1 65% 29.95 1013.4
30 08:53 Calm 10.00 Fair CLR 57.9 50 75% 29.95 1013.7
30 07:53 Calm 10.00 Fair CLR 52 48.9 89% 29.95 1013.5
30 06:53 Calm 10.00 Patches Fog CLR 46.9 45 93% 29.93 1013.0
30 05:53 Calm 8.00 Fair CLR 48 46.9 96% 29.92 1012.4
30 04:53 Calm 9.00 Fair CLR 50 46.9 59 48.9 89% 29.91 1012.1
30 03:53 Calm 10.00 Fair CLR 50 46.9 89% 29.91 1012.1
30 02:53 Calm 10.00 Fair CLR 52 48.9 89% 29.91 1012.1
30 01:53 Calm 10.00 Fair CLR 51.1 48.9 92% 29.91 1012.1
29 23:53 S 3 10.00 Fair CLR 57 50 78% 29.91 1012.2
29 22:53 S 5 10.00 Fair CLR 59 50 82 59 72% 29.91 1012.2
29 21:53 S 6 10.00 Fair CLR 63 50 63% 29.91 1012.2
29 20:53 S 6 10.00 Fair CLR 64.9 50 59% 29.89 1011.7
29 19:53 S 5 10.00 Fair CLR 70 51.1 51% 29.87 1011.0
29 18:53 SE 7 10.00 Fair CLR 77 51.1 40% 78 29.86 1010.7
29 17:53 SE 12 10.00 Fair CLR 81 52 37% 80 29.86 1010.6
29 16:53 SE 10 10.00 Fair CLR 82 51.1 84 64 34% 81 29.88 1011.1
29 15:53 SE 10 10.00 Fair CLR 82.9 50 32% 81 29.89 1011.6
29 14:53 S 10 10.00 Fair CLR 81 52 37% 80 29.92 1012.4
29 13:53 S 9 10.00 Fair CLR 79 51.1 38% 79 29.93 1012.9
29 12:53 SE 7 10.00 Fair CLR 77 52 42% 78 29.96 1013.8
29 11:53 S 7 10.00 Fair CLR 70 53.1 55% 29.98 1014.5
29 10:53 S 6 10.00 Fair CLR 64 54 64 50 70% 29.99 1015.1
29 09:53 Vrbl 3 10.00 Mostly Cloudy BKN004 54 54 100% 30 1015.1
29 08:53 SW 3 0.50 Fog VV002 52 52 100% 30 1015.3
29 07:53 S 3 0.25 Fog VV002 51.1 51.1 100% 29.99 1014.9
29 06:53 Calm 0.25 Fog VV002 50 50 100% 29.97 1014.2
29 05:53 Calm 0.25 Fog VV001 51.1 51.1 100% 29.96 1013.8
29 04:53 Calm 0.25 Fog VV002 52 51.1 55.9 50 97% 29.97 1014.1
29 03:53 Calm 0.25 Fog VV001 52 52 100% 29.96 1014.0
29 02:53 Calm 0.25 Fog VV001 51.1 51.1 100% 29.96 1014.0
29 01:53 Calm 0.25 Fog VV001 52 52 100% 29.96 1014.0
29 00:53 S 5 9.00 Fair CLR 52 51.1 97% 29.96 1014.0
28 23:53 S 5 10.00 Fair CLR 53.1 51.1 93% 29.96 1013.7
28 22:53 Calm 10.00 Fair CLR 55.9 52 72 55.9 87% 29.95 1013.7
28 21:53 Calm 10.00 Fair CLR 57.9 53.1 84% 29.96 1013.8
28 20:53 SE 6 10.00 Fair CLR 61 54 78% 29.95 1013.5
28 19:53 SE 6 10.00 Fair CLR 66.9 54 63% 29.93 1013.0
28 18:53 SE 6 10.00 Fair CLR 71.1 54 55% 29.94 1013.3
28 17:53 SE 7 10.00 Fair CLR 72 55 55% 29.94 1013.4
28 16:53 S 6 10.00 Fair CLR 68 55 69.1 63 63% 29.96 1013.9
28 15:53 S 9 10.00 Fair CLR 69.1 53.1 57% 29.98 1014.5
28 14:53 S 7 10.00 Fair CLR 66.9 54 63% 29.99 1014.9
28 13:53 SE 6 10.00 Fair CLR 63 54 73% 30.01 1015.6
28 12:53 SE 6 10.00 Fair CLR 63 54 73% 30.02 1015.9
28 11:53 S 6 10.00 Fair CLR 64 53.1 68% 30.02 1016.0
28 10:53 SE 7 10.00 Mostly Cloudy BKN200 64 53.1 64 55 68% 30.01 1015.7
Date Time (pdt) Wind (mph) Vis. (mi.) Weather Sky Cond. Air Dwpt Max. Min. Relative Humidity Wind Chill (°F) Heat Index (°F) altimeter (in) sea level (mb) 1 hr 3 hr 6 hr
6 hour
Temperature (ºF) Pressure Precipitation (in)